Ahmad Pato

Scout - Persik
22 Feb 2028
Dienstag
Verarbeitung

Persönlichkeit

Anpassungsfähigkeit (2) Ehrgeiz (18) Kontroverse (13) Loyalität (9) Druck (16) Professionalität (18) Fairness (2) Temperament (13)

Profil

Trainerstil Demokratisch
Lizenz Nationale A
Entschlossenheit 5
Menschenführung 8
Motivation 3
Disziplin 7
Arbeitszufriedenheit
100%
Ermüdung
0%
Rolle Scout
Gehalt 19.3K p/W
Vertrag 14.03.2028

Leistung

Verhalten Gut
Trainingseffektivität
23%
Spielerentwicklung
20%
Verletzungsprävention
10%
Taktische Umsetzung
10%

Letzte Ereignisse

Vertragsverhandlung begonnen 7T her
Nahm an einer Scouting-Besprechung teil 7T her
Vertragsverhandlung begonnen 7T her
Vertragsverhandlung begonnen 7T her
Vertragsverhandlung begonnen 7T her
Vertragsverhandlung begonnen 7T her
Vertragsverhandlung begonnen 7T her
Vertragsverhandlung begonnen 7T her

Aktuell beobachtet

72
Spieler Verein Status Fähigkeit Vertrauen Beobachtet Zuletzt beobachtet Letzte Stimme
Boubakary Diarra Semen Padang Aktiv 73 / 71 55% 1 31.01.2028 -
Alejandro Quintana Atlanta Aktiv 92 / 95 40% 11 30.12.2027 -
Gianluca Pugliese Güemes Aktiv 112 / 117 40% 2 30.12.2027 -
Diego Campos Bali United Aktiv 113 / 103 40% 7 29.12.2027 -
Alexandre Ramalingom Persita Aktiv 108 / 103 40% 2 29.12.2027 -
Naoufel Zerhouni Persib Aktiv 112 / 108 40% 5 27.12.2027 -
Agustín Gallo Tristán Suárez Aktiv 109 / 109 40% 4 26.12.2027 -
Santiago Apa All Boys Aktiv 97 / 122 40% 5 25.12.2027 -
Oscar Belinetz Agropecuario Argentino Aktiv 101 / 113 40% 2 25.12.2027 -
Genaro Rossi San Martín SJ Aktiv 94 / 109 40% 1 23.12.2027 -
Sebastián Cocimano Nueva Chicago Aktiv 117 / 114 40% 6 22.12.2027 -
Gustavo Viera Cerro Largo Aktiv 104 / 112 40% 2 22.12.2027 -
Marco Miori Alvarado Aktiv 124 / 124 40% 3 21.12.2027 -
Adrián Dalmau PSIM Aktiv 106 / 96 40% 5 21.12.2027 -
Sudi Abdallah Persijap Aktiv 91 / 101 51% 9 20.12.2027 -
Javier Martínez Almirante Brown Aktiv 105 / 102 40% 5 20.12.2027 -
Ignacio Valsangiácomo Racing Aktiv 86 / 95 40% 2 18.12.2027 -
Hernán Rivero Patronato Aktiv 124 / 111 40% 3 17.12.2027 -
Júnior Brandão Madura United Aktiv 94 / 96 40% 1 17.12.2027 -
Nermin Haljeta PSIM Aktiv 116 / 102 40% 2 16.12.2027 -
Leonel Barrios Talleres Aktiv 95 / 87 40% 2 15.12.2027 -
Kodai Tanaka PSM Aktiv 94 / 103 40% 2 15.12.2027 -
Abdoulaye Diarra Bali United Aktiv 97 / 96 40% 4 14.12.2027 -
Lucas Carrizo Plaza Colonia Aktiv 118 / 101 40% 4 13.12.2027 -
Luca Franco Arsenal Aktiv 116 / 112 40% 5 13.12.2027 -
Danilo Santacruz Madura United Aktiv 104 / 110 40% 8 12.12.2027 -
Augusto Berrondo Tristán Suárez Aktiv 96 / 121 40% 8 11.12.2027 -
Nicolás Heiz Maipú Aktiv 90 / 103 40% 4 11.12.2027 -
Juan Mendoza Güemes Aktiv 118 / 93 40% 4 09.12.2027 -
Juan Rocca Gimnasia y Tiro Aktiv 124 / 108 40% 5 07.12.2027 -
Esteban da Silva Racing Aktiv 123 / 106 40% 3 06.12.2027 -
Koldo Obieta Borneo Aktiv 96 / 107 40% 1 02.12.2027 -
Facundo Castelli Estudiantes Aktiv 118 / 124 40% 5 01.12.2027 -
Lucas Pedraza Defensores Unidos Aktiv 97 / 108 40% 3 30.11.2027 -
Sávio PSM Aktiv 103 / 104 40% 3 28.11.2027 -
Dalberto Arema Aktiv 107 / 108 40% 6 22.11.2027 -
Luka Čumić PSM Aktiv 105 / 94 40% 1 19.11.2027 -
Valdeci Arema Aktiv 90 / 105 40% 3 18.11.2027 -
Dejan Tumbas Persis Aktiv 86 / 105 40% 1 18.11.2027 -
Alan Bonansea Colón Aktiv 93 / 108 40% 1 17.11.2027 -
Alan Sombra Defensores Unidos Aktiv 97 / 92 40% 3 13.11.2027 -
Kianz Froese Semen Padang Aktiv 96 / 95 40% 1 12.11.2027 -
Joel Kojo Navbahor Aktiv 111 / 106 40% 1 31.10.2027 -
Jort van der Sande Bali United Aktiv 104 / 108 40% 2 19.10.2027 -
Bruno Nasta San Miguel Aktiv 119 / 99 40% 1 19.10.2027 -
Uilliam Barros Persib Aktiv 99 / 98 40% 3 18.10.2027 -
Alexander Jeremejeff Persija Aktiv 104 / 112 40% 6 13.10.2027 -
Elías Ayala Madryn Aktiv 122 / 120 40% 1 08.09.2027 -
Lucas Morelatto Persijap Aktiv 100 / 108 40% 1 18.08.2027 -
Yeferson Rodallega Envigado Aktiv 125 / 130 40% 2 16.08.2027 -
Andrés Álvarez Aguilas Doradas Aktiv 102 / 100 40% 1 15.08.2027 -
França Maluku Utara United Aktiv 95 / 90 40% 2 13.08.2027 -
Nicolás Talpone Colón Aktiv 111 / 98 40% 1 13.08.2027 -
Santiago Corbo Miramar Misiones Aktiv 100 / 104 40% 2 11.08.2027 -
Nicolás Paz San Martín SJ Aktiv 130 / 115 40% 3 08.08.2027 -
Zane Albarus Cambridge United Aktiv 113 / 117 40% 3 02.08.2027 -
Scott Smith Barrow AFC Aktiv 100 / 97 40% 1 01.08.2027 -
Erik de los Santos Racing Aktiv 111 / 128 40% 1 29.07.2027 -
Muhammed Kabiru PSIM Aktiv 98 / 88 40% 1 29.07.2027 -
Gonzalo Asis Almagro Aktiv 119 / 110 40% 1 26.07.2027 -
Juan Pablo Córdoba Gimnasia y Esgrima Aktiv 129 / 122 40% 1 26.07.2027 -
Radovan Pankov Persija Aktiv 110 / 106 40% 2 19.07.2027 -
Vasily Cherov Ufa Aktiv 114 / 113 40% 1 11.07.2027 -
Artem Makarchuk Sochi Aktiv 110 / 102 40% 2 10.07.2027 -
Pavel Maslov Chaika Aktiv 98 / 99 40% 2 08.07.2027 -
Rizky Pellu Maluku Utara United Aktiv 85 / 80 55% 1 05.07.2027 -
Artem Meschaninov Rodina Aktiv 92 / 112 40% 1 05.07.2027 -
Federico Sardella Maluku Utara United Aktiv 82 / 81 55% 1 14.06.2027 -
Nurhidayat PSBS Biak Aktiv 78 / 85 51% 1 07.01.2027 -
Mohcine Hassan PSBS Biak Aktiv 80 / 84 51% 1 01.01.2027 -
Manahati Lestusen Maluku Utara United Aktiv 86 / 83 51% 1 31.08.2026 -
Iker Guarrotxena Persijap Aktiv 124 / 124 30% 1 / 1m 19.08.2026 -